^^
Station Historical Data
 
Daily Summary for December 16, 2017 Units:  Metric    English   Both
« Previous Day
Next Day »
Daily Weekly Monthly Yearly Custom
  Current: High: Low: Average:
Temperature: -1.4 °C 6.0 °C -1.4 °C 2.8 °C
Dew Point: -3.1 °C 4.9 °C -3.1 °C 1.1 °C
Humidity: 88% 96% 77% 89%
Wind Speed: 0.0km/h 18.5km/h 0.0km/h 6.8km/h
Wind Gust: 0.0km/h 18.5km/h - -
WindCalm - - SW
Pressure: 1010.7 hPa 1010.7 hPa 994.8 hPa -
Precipitation: 6.9 mm      
Historical Graphs
 
 
Tabular Data for December 16, 2017
Time Temperature Dew Point Pressure Wind Wind Speed Wind Gust Humidity Rainfall Rate (Hourly) solar Conditions
00:00 3.9 °C 3.0 °C 996.8 hPa WNW 7.6 km/h 7.6 km/h 94% 1.5 mm 0.0 W/m2 RA
00:02 3.9 °C 3.0 °C 996.8 hPa West 7.4 km/h 7.4 km/h 94% 1.5 mm 0.0 W/m2 RA
00:07 3.9 °C 3.0 °C 996.8 hPa West 9.3 km/h 9.3 km/h 94% 1.8 mm 0.0 W/m2 RA
00:09 3.9 °C 3.0 °C 996.8 hPa West 5.6 km/h 5.6 km/h 94% 1.5 mm 0.0 W/m2 RA
00:12 3.9 °C 3.0 °C 996.8 hPa WSW 7.4 km/h 7.4 km/h 94% 1.5 mm 0.0 W/m2 RA
00:15 3.9 °C 3.0 °C 996.8 hPa West 7.9 km/h 7.9 km/h 94% 1.5 mm 0.0 W/m2 RA
00:20 6.0 °C 4.9 °C 1001.9 hPa West 7.4 km/h 7.4 km/h 93% 1.5 mm 0.0 W/m2 RA
00:21 3.9 °C 3.0 °C 996.8 hPa West 9.3 km/h 9.3 km/h 94% 1.5 mm 0.0 W/m2 RA
00:22 3.9 °C 3.0 °C 996.8 hPa West 9.3 km/h 9.3 km/h 94% 1.5 mm 0.0 W/m2 RA
00:26 3.9 °C 3.0 °C 997.9 hPa WNW 9.3 km/h 9.3 km/h 94% 1.5 mm 0.0 W/m2 RA
00:27 3.9 °C 3.0 °C 997.9 hPa West 7.4 km/h 7.4 km/h 94% 1.3 mm 0.0 W/m2 RA
00:28 3.9 °C 3.0 °C 997.9 hPa WSW 5.6 km/h 5.6 km/h 94% 1.5 mm 0.0 W/m2 RA
00:33 3.8 °C 2.9 °C 997.9 hPa West 9.7 km/h 9.7 km/h 94% 1.3 mm 0.0 W/m2 RA
00:37 3.8 °C 3.1 °C 997.9 hPa West 7.4 km/h 7.4 km/h 95% 1.3 mm 0.0 W/m2 RA
00:42 3.8 °C 3.1 °C 997.9 hPa West 7.4 km/h 7.4 km/h 95% 1.3 mm 0.0 W/m2 RA
00:47 3.8 °C 3.1 °C 997.9 hPa West 7.4 km/h 7.4 km/h 95% 1.3 mm 0.0 W/m2 RA
00:48 3.8 °C 3.1 °C 997.9 hPa West 7.4 km/h 7.4 km/h 95% 1.3 mm 0.0 W/m2 RA
00:50 3.8 °C 3.1 °C 997.9 hPa West 9.3 km/h 9.3 km/h 95% 1.3 mm 0.0 W/m2 RA
00:54 3.8 °C 3.1 °C 997.9 hPa WSW 7.4 km/h 7.4 km/h 95% 1.3 mm 0.0 W/m2 RA
00:59 3.8 °C 3.1 °C 997.9 hPa WSW 5.6 km/h 5.6 km/h 95% 1.0 mm 0.0 W/m2 RA
01:00 3.8 °C 3.1 °C 997.9 hPa West 3.2 km/h 8.0 km/h 95% 0.0 mm 0.0 W/m2 RA
01:01 3.8 °C 3.1 °C 997.9 hPa WNW 5.8 km/h 5.8 km/h 95% 1.0 mm 0.0 W/m2 RA
01:05 3.8 °C 3.1 °C 997.9 hPa WNW 7.4 km/h 7.4 km/h 95% 0.8 mm 0.0 W/m2 RA
01:10 3.8 °C 3.1 °C 996.8 hPa West 5.8 km/h 5.8 km/h 95% 1.0 mm 0.0 W/m2 RA
01:11 3.8 °C 3.1 °C 996.8 hPa West 7.4 km/h 7.4 km/h 95% 1.0 mm 0.0 W/m2 RA
01:16 3.8 °C 3.1 °C 996.8 hPa West 7.4 km/h 7.4 km/h 95% 0.8 mm 0.0 W/m2 RA
01:17 3.8 °C 3.1 °C 996.8 hPa West 7.4 km/h 7.4 km/h 95% 0.8 mm 0.0 W/m2 RA
01:20 3.8 °C 3.1 °C 996.8 hPa West 9.3 km/h 9.3 km/h 95% 1.0 mm 0.0 W/m2 RA
01:24 3.8 °C 3.1 °C 996.8 hPa West 5.6 km/h 5.6 km/h 95% 1.0 mm 0.0 W/m2 RA
01:27 3.8 °C 3.1 °C 996.8 hPa WSW 5.6 km/h 5.6 km/h 95% 1.0 mm 0.0 W/m2 RA
01:29 3.8 °C 3.1 °C 996.8 hPa West 5.6 km/h 5.6 km/h 95% 1.0 mm 0.0 W/m2 RA
01:34 3.8 °C 3.1 °C 996.8 hPa WNW 7.4 km/h 7.4 km/h 95% 1.0 mm 0.0 W/m2 RA
01:36 3.8 °C 3.1 °C 996.8 hPa NW 9.3 km/h 9.3 km/h 95% 1.3 mm 0.0 W/m2 RA
01:41 3.7 °C 3.0 °C 995.8 hPa West 9.5 km/h 9.5 km/h 95% 1.0 mm 0.0 W/m2 RA
01:43 3.7 °C 3.0 °C 995.8 hPa SW 9.3 km/h 9.3 km/h 95% 1.3 mm 0.0 W/m2 RA
01:47 3.7 °C 3.0 °C 995.8 hPa WSW 9.3 km/h 9.3 km/h 95% 1.0 mm 0.0 W/m2 RA
01:49 3.7 °C 3.0 °C 995.8 hPa West 9.3 km/h 9.3 km/h 95% 1.3 mm 0.0 W/m2 RA
01:52 3.7 °C 3.0 °C 995.8 hPa West 13.0 km/h 13.0 km/h 95% 1.3 mm 0.0 W/m2 RA
01:54 3.7 °C 3.0 °C 995.8 hPa West 9.3 km/h 9.3 km/h 95% 1.0 mm 0.0 W/m2 RA
01:58 3.7 °C 3.0 °C 995.8 hPa West 5.8 km/h 5.8 km/h 95% 1.3 mm 0.0 W/m2 RA
02:00 3.7 °C 3.0 °C 995.8 hPa WSW 9.3 km/h 9.3 km/h 95% 1.0 mm 0.0 W/m2 RA
02:05 3.6 °C 2.9 °C 995.8 hPa WSW 9.3 km/h 9.3 km/h 95% 1.0 mm 0.0 W/m2 RA
02:06 3.6 °C 2.9 °C 995.8 hPa WSW 11.1 km/h 11.1 km/h 95% 1.0 mm 0.0 W/m2 CLR
02:11 3.6 °C 2.9 °C 996.8 hPa SW 9.3 km/h 9.3 km/h 95% 1.0 mm 0.0 W/m2 RA
02:13 3.6 °C 2.9 °C 996.8 hPa WSW 7.6 km/h 7.6 km/h 95% 1.0 mm 0.0 W/m2 RA
02:19 3.6 °C 2.9 °C 996.8 hPa West 9.3 km/h 9.3 km/h 95% 1.0 mm 0.0 W/m2 CLR
02:20 6.0 °C 4.9 °C 1001.9 hPa WSW 9.3 km/h 9.3 km/h 93% 0.8 mm 0.0 W/m2 CLR
02:25 6.0 °C 4.9 °C 1001.9 hPa West 11.1 km/h 11.1 km/h 93% 0.8 mm 0.0 W/m2 CLR
02:30 3.6 °C 3.0 °C 995.8 hPa WSW 7.9 km/h 7.9 km/h 96% 0.5 mm 0.0 W/m2 CLR
02:31 3.6 °C 3.0 °C 995.8 hPa West 7.4 km/h 7.6 km/h 96% 0.5 mm 0.0 W/m2 CLR
02:36 3.6 °C 3.0 °C 995.8 hPa WSW 13.0 km/h 13.0 km/h 96% 0.5 mm 0.0 W/m2 CLR
02:38 3.5 °C 2.8 °C 995.8 hPa WSW 13.0 km/h 13.0 km/h 95% 0.5 mm 0.0 W/m2 CLR
02:40 3.5 °C 2.8 °C 994.8 hPa WSW 9.7 km/h 12.9 km/h 95% 0.0 mm 0.0 W/m2 CLR
02:45 3.5 °C 2.8 °C 994.8 hPa WSW 8.0 km/h 14.5 km/h 95% 0.0 mm 0.0 W/m2 CLR
02:47 3.5 °C 2.8 °C 994.8 hPa WSW 9.3 km/h 9.3 km/h 95% 0.3 mm 0.0 W/m2 CLR
02:52 3.4 °C 2.7 °C 994.8 hPa WSW 9.3 km/h 9.3 km/h 95% 0.3 mm 0.0 W/m2 CLR
02:53 3.4 °C 2.7 °C 994.8 hPa WSW 9.3 km/h 9.3 km/h 95% 0.3 mm 0.0 W/m2 CLR
02:58 3.4 °C 2.7 °C 995.8 hPa WSW 9.3 km/h 9.3 km/h 95% 0.3 mm 0.0 W/m2 RA
03:00 3.4 °C 2.7 °C 995.8 hPa WSW 9.3 km/h 9.3 km/h 95% 0.3 mm 0.0 W/m2 RA
03:03 3.4 °C 2.7 °C 995.8 hPa WSW 11.1 km/h 11.1 km/h 95% 0.3 mm 0.0 W/m2 RA
03:06 3.4 °C 2.7 °C 995.8 hPa WSW 8.7 km/h 8.7 km/h 95% 0.3 mm 0.0 W/m2 CLR
03:10 6.0 °C 4.9 °C 1001.9 hPa WSW 9.3 km/h 9.3 km/h 93% 0.0 mm 0.0 W/m2 CLR
03:13 3.4 °C 2.7 °C 994.8 hPa WSW 11.1 km/h 11.1 km/h 95% 0.0 mm 0.0 W/m2 CLR
03:18 3.3 °C 2.6 °C 994.8 hPa WSW 9.3 km/h 9.3 km/h 95% 0.0 mm 0.0 W/m2 CLR
03:19 3.3 °C 2.6 °C 994.8 hPa SW 9.3 km/h 9.3 km/h 95% 0.0 mm 0.0 W/m2 CLR
03:20 3.3 °C 2.6 °C 994.8 hPa SW 9.3 km/h 9.3 km/h 95% 0.0 mm 0.0 W/m2 CLR
03:25 3.4 °C 2.7 °C 995.8 hPa West 7.4 km/h 7.4 km/h 95% 0.3 mm 0.0 W/m2 RA
03:30 3.4 °C 2.7 °C 995.8 hPa SW 9.7 km/h 9.7 km/h 95% 0.3 mm 0.0 W/m2 RA
03:31 3.4 °C 2.7 °C 995.8 hPa WSW 10.3 km/h 10.3 km/h 95% 0.3 mm 0.0 W/m2 CLR
03:33 3.4 °C 2.7 °C 995.8 hPa SW 14.8 km/h 14.8 km/h 95% 0.3 mm 0.0 W/m2 CLR
03:37 3.5 °C 2.8 °C 995.8 hPa WSW 13.0 km/h 13.0 km/h 95% 0.3 mm 0.0 W/m2 CLR
03:38 3.5 °C 2.8 °C 995.8 hPa West 13.0 km/h 13.0 km/h 95% 0.3 mm 0.0 W/m2 CLR
03:43 3.6 °C 2.9 °C 995.8 hPa WSW 11.1 km/h 11.1 km/h 95% 0.3 mm 0.0 W/m2 CLR
03:45 3.6 °C 2.9 °C 995.8 hPa WSW 14.8 km/h 14.8 km/h 95% 0.3 mm 0.0 W/m2 CLR
03:50 3.6 °C 2.7 °C 995.8 hPa NW 9.5 km/h 9.5 km/h 94% 0.3 mm 0.0 W/m2 RA
03:53 3.6 °C 2.7 °C 995.8 hPa WSW 13.0 km/h 13.0 km/h 94% 0.5 mm 0.0 W/m2 RA
03:57 3.6 °C 2.7 °C 996.8 hPa West 14.8 km/h 14.8 km/h 94% 0.5 mm 0.0 W/m2 RA
04:00 3.6 °C 2.7 °C 996.8 hPa WSW 11.1 km/h 11.1 km/h 94% 0.5 mm 0.0 W/m2 RA
04:02 3.6 °C 2.7 °C 996.8 hPa WSW 11.1 km/h 11.1 km/h 94% 0.5 mm 0.0 W/m2 RA
04:06 3.6 °C 2.7 °C 996.8 hPa WSW 11.1 km/h 11.1 km/h 94% 0.8 mm 0.0 W/m2 RA
04:08 3.6 °C 2.7 °C 996.8 hPa WSW 9.5 km/h 9.5 km/h 94% 0.8 mm 0.0 W/m2 RA
04:14 3.6 °C 2.7 °C 996.8 hPa SW 16.7 km/h 16.7 km/h 94% 0.8 mm 0.0 W/m2 RA
04:17 3.6 °C 2.7 °C 996.8 hPa WSW 14.8 km/h 14.8 km/h 94% 0.8 mm 0.0 W/m2 RA
04:18 3.6 °C 2.7 °C 996.8 hPa WSW 11.1 km/h 11.1 km/h 94% 0.8 mm 0.0 W/m2 RA
04:24 3.6 °C 2.6 °C 996.8 hPa WSW 14.8 km/h 14.8 km/h 93% 0.8 mm 0.0 W/m2 RA
04:28 3.6 °C 2.6 °C 996.8 hPa West 9.7 km/h 9.7 km/h 93% 0.8 mm 0.0 W/m2 RA
04:29 3.6 °C 2.6 °C 996.8 hPa WSW 13.0 km/h 13.0 km/h 93% 0.8 mm 0.0 W/m2 RA
04:34 3.6 °C 2.6 °C 996.8 hPa WSW 13.0 km/h 13.0 km/h 93% 0.8 mm 0.0 W/m2 CLR
04:38 3.5 °C 2.5 °C 996.8 hPa WNW 13.0 km/h 13.0 km/h 93% 0.8 mm 0.0 W/m2 CLR
04:43 3.5 °C 2.5 °C 996.8 hPa WNW 14.8 km/h 14.8 km/h 93% 1.0 mm 0.0 W/m2 RA
04:48 3.4 °C 2.2 °C 996.8 hPa WSW 14.8 km/h 14.8 km/h 92% 0.8 mm 0.0 W/m2 RA
04:49 3.4 °C 2.2 °C 996.8 hPa West 14.8 km/h 14.8 km/h 92% 0.8 mm 0.0 W/m2 CLR
04:54 3.4 °C 2.2 °C 996.8 hPa WSW 11.1 km/h 11.1 km/h 92% 0.8 mm 0.0 W/m2 CLR
04:59 3.3 °C 2.1 °C 995.8 hPa WSW 11.9 km/h 11.9 km/h 92% 0.8 mm 0.0 W/m2 CLR
05:04 3.3 °C 2.1 °C 995.8 hPa SW 11.1 km/h 11.1 km/h 92% 0.5 mm 0.0 W/m2 CLR
05:05 3.3 °C 2.1 °C 995.8 hPa WSW 8.0 km/h 14.5 km/h 92% 0.0 mm 0.0 W/m2 CLR
05:10 3.2 °C 2.0 °C 997.9 hPa WSW 10.0 km/h 10.0 km/h 92% 0.3 mm 0.0 W/m2 CLR
05:13 3.2 °C 2.0 °C 997.9 hPa SW 13.0 km/h 13.0 km/h 92% 0.3 mm 0.0 W/m2 CLR
05:18 3.1 °C 1.9 °C 997.9 hPa WSW 14.8 km/h 14.8 km/h 92% 0.3 mm 0.0 W/m2 CLR
05:19 3.1 °C 1.9 °C 997.9 hPa WSW 14.8 km/h 14.8 km/h 92% 0.3 mm 0.0 W/m2 CLR
05:24 3.1 °C 1.9 °C 997.9 hPa WSW 13.0 km/h 13.0 km/h 92% 0.0 mm 0.0 W/m2 CLR
05:29 3.1 °C 1.8 °C 997.9 hPa WSW 14.8 km/h 14.8 km/h 91% 0.0 mm 0.0 W/m2 CLR
05:30 3.1 °C 1.8 °C 997.9 hPa West 14.8 km/h 14.8 km/h 91% 0.0 mm 0.0 W/m2 CLR
05:35 3.0 °C 1.7 °C 997.9 hPa WSW 14.8 km/h 14.8 km/h 91% 0.0 mm 0.0 W/m2 CLR
05:38 3.0 °C 1.7 °C 997.9 hPa WSW 13.0 km/h 13.0 km/h 91% 0.0 mm 0.0 W/m2 CLR
05:41 3.0 °C 1.7 °C 997.9 hPa WSW 9.3 km/h 9.3 km/h 91% 0.0 mm 0.0 W/m2 CLR
05:46 3.0 °C 1.7 °C 997.9 hPa WSW 9.5 km/h 9.5 km/h 91% 0.0 mm 0.0 W/m2 CLR
05:47 3.0 °C 1.7 °C 997.9 hPa WSW 11.9 km/h 11.9 km/h 91% 0.0 mm 0.0 W/m2 CLR
05:52 3.0 °C 1.7 °C 997.9 hPa SW 12.6 km/h 12.6 km/h 91% 0.0 mm 0.0 W/m2 CLR
05:57 3.0 °C 1.7 °C 997.9 hPa WSW 11.1 km/h 11.1 km/h 91% 0.0 mm 0.0 W/m2 CLR
05:58 3.0 °C 1.7 °C 997.9 hPa WSW 11.1 km/h 11.1 km/h 91% 0.0 mm 0.0 W/m2 CLR
06:02 3.0 °C 1.7 °C 997.9 hPa West 9.3 km/h 9.3 km/h 91% 0.0 mm 0.0 W/m2 CLR
06:03 3.0 °C 1.7 °C 997.9 hPa WSW 9.3 km/h 9.3 km/h 91% 0.0 mm 0.0 W/m2 CLR
06:08 3.0 °C 1.7 °C 997.9 hPa West 11.1 km/h 11.1 km/h 91% 0.0 mm 0.0 W/m2 CLR
06:09 3.0 °C 1.7 °C 996.8 hPa SW 11.1 km/h 11.1 km/h 91% 0.0 mm 0.0 W/m2 CLR
06:14 3.0 °C 1.7 °C 996.8 hPa WSW 11.1 km/h 11.1 km/h 91% 0.0 mm 0.0 W/m2 CLR
06:15 3.0 °C 1.7 °C 996.8 hPa WSW 13.0 km/h 13.0 km/h 91% 0.0 mm 0.0 W/m2 CLR
06:19 3.0 °C 1.7 °C 996.8 hPa WSW 5.6 km/h 5.6 km/h 91% 0.0 mm 0.0 W/m2 CLR
06:22 3.0 °C 1.7 °C 996.8 hPa West 7.4 km/h 7.4 km/h 91% 0.0 mm 0.0 W/m2 RA
06:24 3.0 °C 1.7 °C 997.9 hPa SW 8.7 km/h 8.7 km/h 91% 0.0 mm 0.0 W/m2 RA
06:29 3.0 °C 1.7 °C 997.9 hPa WSW 9.3 km/h 9.3 km/h 91% 0.0 mm 0.0 W/m2 RA
06:30 3.0 °C 1.7 °C 997.9 hPa WSW 7.4 km/h 7.4 km/h 91% 0.0 mm 0.0 W/m2 RA
06:35 3.0 °C 1.7 °C 997.9 hPa WSW 6.9 km/h 6.9 km/h 91% 0.0 mm 0.0 W/m2 CLR
06:36 3.0 °C 1.7 °C 997.9 hPa WSW 7.4 km/h 7.4 km/h 91% 0.0 mm 0.0 W/m2 CLR
06:41 3.0 °C 1.7 °C 997.9 hPa WSW 9.3 km/h 9.3 km/h 91% 0.0 mm 0.0 W/m2 CLR
06:42 3.0 °C 1.7 °C 997.9 hPa West 9.3 km/h 9.3 km/h 91% 0.0 mm 0.0 W/m2 CLR
06:47 3.0 °C 1.7 °C 997.9 hPa West 5.6 km/h 5.6 km/h 91% 0.3 mm 0.0 W/m2 RA
06:50 6.0 °C 4.9 °C 1001.9 hPa Calm     93% 0.3 mm 0.0 W/m2 RA
06:53 3.0 °C 1.7 °C 997.9 hPa Calm     91% 0.3 mm 0.0 W/m2 RA
06:55 3.0 °C 1.7 °C 997.9 hPa SW 3.7 km/h 3.9 km/h 91% 0.3 mm 0.0 W/m2 RA
06:58 3.0 °C 1.7 °C 997.9 hPa West 5.6 km/h 5.6 km/h 91% 0.3 mm 0.0 W/m2 CLR
07:03 3.0 °C 1.7 °C 997.9 hPa West 5.8 km/h 5.8 km/h 91% 0.3 mm 121.7 W/m2 CLR
07:05 3.0 °C 1.7 °C 997.9 hPa West 5.6 km/h 5.6 km/h 91% 0.3 mm 122.3 W/m2 CLR
07:09 3.1 °C 1.8 °C 997.9 hPa WSW 7.4 km/h 7.4 km/h 91% 0.3 mm 128.3 W/m2 RA
07:12 3.1 °C 1.9 °C 997.9 hPa WSW 7.4 km/h 7.4 km/h 92% 0.3 mm 126.3 W/m2 RA
07:17 3.1 °C 1.9 °C 997.9 hPa WSW 7.4 km/h 7.4 km/h 92% 0.3 mm 132.4 W/m2 CLR
07:22 3.1 °C 1.9 °C 997.9 hPa West 5.8 km/h 5.8 km/h 92% 0.3 mm 134.7 W/m2 CLR
07:27 3.1 °C 1.9 °C 997.9 hPa WSW 7.4 km/h 7.4 km/h 92% 0.3 mm 137.1 W/m2 CLR
07:28 3.1 °C 1.9 °C 997.9 hPa West 5.6 km/h 5.6 km/h 92% 0.3 mm 137.6 W/m2 CLR
07:33 3.1 °C 1.9 °C 997.9 hPa WSW 9.3 km/h 9.3 km/h 92% 0.3 mm 140.0 W/m2 CLR
07:38 3.0 °C 1.8 °C 997.9 hPa West 5.6 km/h 5.6 km/h 92% 0.3 mm 138.3 W/m2 RA
07:43 3.0 °C 1.8 °C 998.9 hPa West 5.6 km/h 5.6 km/h 92% 0.3 mm 140.0 W/m2 RA
07:44 3.0 °C 1.8 °C 998.9 hPa WSW 5.6 km/h 5.6 km/h 92% 0.3 mm 140.0 W/m2 RA
07:47 3.0 °C 1.8 °C 998.9 hPa West 5.6 km/h 5.6 km/h 92% 0.3 mm 141.1 W/m2 CLR
07:50 3.0 °C 1.8 °C 998.9 hPa WSW 7.6 km/h 7.6 km/h 92% 0.3 mm 142.3 W/m2 RA
07:55 3.0 °C 1.8 °C 998.9 hPa WSW 5.6 km/h 5.6 km/h 92% 0.3 mm 143.4 W/m2 RA
08:00 3.0 °C 1.8 °C 998.9 hPa WSW 3.7 km/h 3.7 km/h 92% 0.3 mm 144.6 W/m2 CLR
08:01 3.0 °C 1.8 °C 998.9 hPa WSW 3.7 km/h 3.7 km/h 92% 0.3 mm 144.6 W/m2 CLR
08:06 3.0 °C 1.8 °C 998.9 hPa WSW 2.6 km/h 2.6 km/h 92% 0.3 mm 145.7 W/m2 CLR
08:08 3.0 °C 1.8 °C 998.9 hPa WSW 3.2 km/h 3.2 km/h 92% 0.3 mm 146.3 W/m2 CLR
08:13 3.0 °C 1.8 °C 998.9 hPa Calm     92% 0.3 mm 146.9 W/m2 CLR
08:18 3.0 °C 1.8 °C 998.9 hPa WSW 2.6 km/h 2.6 km/h 92% 0.3 mm 151.1 W/m2 CLR
08:22 3.0 °C 2.0 °C 998.9 hPa WSW 5.8 km/h 5.8 km/h 93% 0.3 mm 148.0 W/m2 CLR
08:25 3.0 °C 2.0 °C 999.9 hPa WSW 3.9 km/h 3.9 km/h 93% 0.3 mm 148.0 W/m2 RA
08:28 3.0 °C 2.0 °C 999.9 hPa WSW 5.6 km/h 5.6 km/h 93% 0.3 mm 148.0 W/m2 RA
08:33 3.1 °C 2.1 °C 999.9 hPa WSW 3.7 km/h 3.9 km/h 93% 0.3 mm 151.7 W/m2 CLR
08:36 3.1 °C 2.1 °C 999.9 hPa West 4.2 km/h 4.2 km/h 93% 0.3 mm 151.7 W/m2 CLR
08:41 3.1 °C 2.1 °C 999.9 hPa WSW 3.7 km/h 3.7 km/h 93% 0.3 mm 151.1 W/m2 RA
08:42 3.1 °C 2.1 °C 999.9 hPa WSW 5.6 km/h 5.6 km/h 93% 0.3 mm 151.1 W/m2 RA
08:47 3.1 °C 2.1 °C 999.9 hPa WSW 4.7 km/h 4.7 km/h 93% 0.5 mm 150.5 W/m2 RA
08:50 3.1 °C 2.1 °C 999.9 hPa WSW 3.7 km/h 3.7 km/h 93% 0.3 mm 149.9 W/m2 RA
08:52 3.1 °C 2.1 °C 999.9 hPa West 3.7 km/h 3.7 km/h 93% 0.3 mm 149.9 W/m2 RA
08:57 3.1 °C 2.2 °C 999.9 hPa WSW 5.8 km/h 5.8 km/h 94% 0.5 mm 149.4 W/m2 RA
08:59 3.1 °C 2.2 °C 999.9 hPa West 3.9 km/h 3.9 km/h 94% 0.5 mm 148.8 W/m2 RA
09:03 3.1 °C 2.2 °C 999.9 hPa WSW 4.2 km/h 4.2 km/h 94% 0.5 mm 147.6 W/m2 RA
09:07 3.2 °C 2.3 °C 999.9 hPa WSW 5.6 km/h 5.6 km/h 94% 0.8 mm 150.0 W/m2 RA
09:08 3.2 °C 2.3 °C 999.9 hPa WSW 5.6 km/h 5.6 km/h 94% 0.8 mm 150.0 W/m2 RA
09:13 3.2 °C 2.3 °C 999.9 hPa WSW 1.9 km/h 2.3 km/h 94% 0.8 mm 148.2 W/m2 RA
09:14 3.2 °C 2.3 °C 999.9 hPa WSW 3.7 km/h 3.7 km/h 94% 0.8 mm 148.2 W/m2 RA
09:19 3.2 °C 2.3 °C 999.9 hPa WNW 3.7 km/h 3.7 km/h 94% 1.3 mm 146.4 W/m2 RA
09:24 3.2 °C 2.3 °C 1000.9 hPa West 3.7 km/h 3.7 km/h 94% 1.3 mm 144.6 W/m2 RA
09:25 3.2 °C 2.3 °C 1000.9 hPa West 3.7 km/h 3.7 km/h 94% 1.3 mm 144.0 W/m2 RA
09:27 3.2 °C 2.3 °C 1000.9 hPa West 1.9 km/h   94% 1.3 mm 143.4 W/m2 RA
09:30 3.3 °C 2.4 °C 1000.9 hPa WSW 1.9 km/h   94% 1.3 mm 145.6 W/m2 RA
09:35 3.3 °C 2.4 °C 1000.9 hPa Calm     94% 1.3 mm 143.1 W/m2 RA
09:36 3.3 °C 2.4 °C 1000.9 hPa WSW 2.3 km/h   94% 1.3 mm 142.5 W/m2 RA
09:41 3.3 °C 2.4 °C 1001.9 hPa WSW 3.7 km/h 3.7 km/h 94% 1.3 mm 140.1 W/m2 RA
09:46 3.4 °C 2.5 °C 1001.9 hPa SW 5.6 km/h 5.6 km/h 94% 1.5 mm 140.2 W/m2 RA
09:47 3.4 °C 2.5 °C 1001.9 hPa SW 5.6 km/h 5.6 km/h 94% 1.3 mm 139.5 W/m2 RA
09:52 3.5 °C 2.6 °C 1001.9 hPa SW 5.6 km/h 5.6 km/h 94% 1.5 mm 140.1 W/m2 RA
09:57 3.5 °C 2.6 °C 1000.9 hPa SW 4.7 km/h 4.7 km/h 94% 1.5 mm 136.9 W/m2 RA
09:58 3.4 °C 2.5 °C 1000.9 hPa SW 5.6 km/h 5.6 km/h 94% 1.5 mm 133.3 W/m2 RA
10:03 3.4 °C 2.5 °C 1000.9 hPa SW 10.0 km/h 10.0 km/h 94% 1.5 mm 129.5 W/m2 RA
10:08 3.3 °C 2.3 °C 1000.9 hPa SW 18.5 km/h 18.5 km/h 93% 1.3 mm 123.5 W/m2 RA
10:13 3.2 °C 2.2 °C 1001.9 hPa SW 11.1 km/h 11.1 km/h 93% 1.3 mm 117.0 W/m2 RA
10:15 3.2 °C 2.2 °C 1001.9 hPa SW 11.4 km/h 11.4 km/h 93% 1.3 mm 116.4 W/m2 RA
10:20 6.0 °C 4.9 °C 1001.9 hPa SW 9.3 km/h 9.3 km/h 93% 1.0 mm 111.6 W/m2 RA
10:21 3.2 °C 2.0 °C 1001.9 hPa SW 7.6 km/h 7.6 km/h 92% 1.0 mm 111.0 W/m2 RA
10:26 3.2 °C 2.0 °C 1001.9 hPa SSW 9.3 km/h 9.3 km/h 92% 1.0 mm 107.4 W/m2 RA
10:31 3.1 °C 1.9 °C 1001.9 hPa SW 13.0 km/h 13.0 km/h 92% 0.8 mm 100.7 W/m2 RA
10:32 3.1 °C 1.9 °C 1001.9 hPa SW 9.3 km/h 9.3 km/h 92% 0.8 mm 100.2 W/m2 RA
10:37 3.1 °C 1.8 °C 1001.9 hPa SW 16.7 km/h 16.7 km/h 91% 1.0 mm 96.1 W/m2 RA
10:38 3.1 °C 1.8 °C 1001.9 hPa SSW 9.3 km/h 9.3 km/h 91% 1.0 mm 95.5 W/m2 RA
10:43 3.1 °C 1.8 °C 1002.9 hPa SW 7.4 km/h 7.4 km/h 91% 1.0 mm 91.4 W/m2 RA
10:45 3.1 °C 1.8 °C 1002.9 hPa SW 11.9 km/h 11.9 km/h 91% 1.0 mm 89.6 W/m2 RA
10:50 3.1 °C 1.8 °C 1002.9 hPa SSW 5.6 km/h 5.6 km/h 91% 1.0 mm 85.5 W/m2 RA
10:51 3.1 °C 1.8 °C 1002.9 hPa SSW 5.6 km/h 5.6 km/h 91% 1.0 mm 84.3 W/m2 RA
10:56 3.1 °C 1.8 °C 1002.9 hPa South 9.3 km/h 9.3 km/h 91% 0.8 mm 80.2 W/m2 CLR
10:58 3.1 °C 1.8 °C 1002.9 hPa SW 5.6 km/h 5.6 km/h 91% 0.8 mm 78.5 W/m2 CLR
10:59 3.1 °C 1.8 °C 1002.9 hPa SSW 5.6 km/h 5.6 km/h 91% 0.8 mm 77.3 W/m2 CLR
11:04 3.2 °C 1.9 °C 1002.9 hPa SW 7.4 km/h 7.4 km/h 91% 0.8 mm 74.4 W/m2 CLR
11:07 3.2 °C 1.9 °C 1002.9 hPa SW 7.4 km/h 7.4 km/h 91% 0.8 mm 72.0 W/m2 RA
11:10 3.3 °C 1.9 °C 1002.9 hPa SW 11.1 km/h 11.1 km/h 91% 0.8 mm 70.2 W/m2 RA
11:15 3.3 °C 1.9 °C 1002.9 hPa SW 5.6 km/h 5.6 km/h 91% 0.8 mm 67.0 W/m2 RA
11:16 3.3 °C 1.9 °C 1002.9 hPa WSW 7.4 km/h 7.4 km/h 91% 0.8 mm 65.1 W/m2 CLR
11:21 3.3 °C 1.9 °C 1002.9 hPa SW 5.6 km/h 5.8 km/h 91% 0.8 mm 60.2 W/m2 RA
11:22 3.4 °C 2.1 °C 1002.9 hPa WSW 7.4 km/h 7.4 km/h 91% 0.8 mm 60.3 W/m2 RA
11:24 3.4 °C 2.1 °C 1003.9 hPa SW 7.4 km/h 7.4 km/h 91% 0.8 mm 59.7 W/m2 RA
11:27 3.4 °C 2.1 °C 1003.9 hPa SSW 5.6 km/h 5.6 km/h 91% 0.8 mm 55.3 W/m2 RA
11:31 3.4 °C 2.1 °C 1003.9 hPa SSW 9.3 km/h 9.3 km/h 91% 0.8 mm 52.8 W/m2 RA
11:33 3.4 °C 1.9 °C 1003.9 hPa SW 7.4 km/h 7.4 km/h 90% 0.8 mm 50.9 W/m2 CLR
11:36 3.4 °C 1.9 °C 1003.9 hPa SSW 7.4 km/h 7.4 km/h 90% 0.5 mm 46.5 W/m2 CLR
11:38 3.4 °C 1.9 °C 1003.9 hPa WSW 7.4 km/h 7.4 km/h 90% 0.5 mm 44.6 W/m2 CLR
11:43 3.4 °C 1.9 °C 1003.9 hPa SW 11.1 km/h 11.1 km/h 90% 0.3 mm 39.6 W/m2 CLR
11:44 3.4 °C 1.9 °C 1003.9 hPa SSW 11.4 km/h 11.4 km/h 90% 0.3 mm 39.0 W/m2 CLR
11:49 3.5 °C 2.0 °C 1003.9 hPa SW 9.3 km/h 9.3 km/h 90% 0.3 mm 34.7 W/m2 CLR
11:50 3.5 °C 1.8 °C 1003.9 hPa SSW 9.3 km/h 9.3 km/h 89% 0.3 mm 33.4 W/m2 CLR
11:51 3.5 °C 1.8 °C 1003.9 hPa SW 10.0 km/h 10.0 km/h 89% 0.3 mm 32.8 W/m2 CLR
11:56 3.5 °C 1.8 °C 1003.9 hPa SSW 5.6 km/h 5.6 km/h 89% 0.3 mm 28.9 W/m2 CLR
11:58 3.5 °C 1.8 °C 1003.9 hPa SW 7.4 km/h 7.4 km/h 89% 0.3 mm 27.0 W/m2 CLR
11:59 3.6 °C 1.9 °C 1003.9 hPa SSW 7.2 km/h 7.2 km/h 89% 0.3 mm 25.6 W/m2 CLR
12:03 3.6 °C 1.9 °C 1003.9 hPa WSW 9.3 km/h 9.3 km/h 89% 0.3 mm 21.7 W/m2 CLR
12:05 3.6 °C 1.9 °C 1003.9 hPa SW 7.4 km/h 7.4 km/h 89% 0.3 mm 21.0 W/m2 CLR
12:10 3.6 °C 1.8 °C 1003.9 hPa West 9.3 km/h 9.3 km/h 88% 0.0 mm 16.4 W/m2 CLR
12:16 3.6 °C 1.8 °C 1003.9 hPa SW 9.3 km/h 9.3 km/h 88% 0.0 mm 10.5 W/m2 CLR
12:17 3.6 °C 1.8 °C 1003.9 hPa SW 13.0 km/h 13.0 km/h 88% 0.0 mm 10.5 W/m2 CLR
12:22 3.6 °C 1.8 °C 1003.9 hPa SSW 11.1 km/h 11.1 km/h 88% 0.0 mm 5.9 W/m2 CLR
12:25 3.6 °C 1.6 °C 1003.9 hPa SSW 9.3 km/h 9.3 km/h 87% 0.0 mm 3.3 W/m2 CLR
12:30 3.6 °C 1.6 °C 1003.9 hPa SW 10.3 km/h 10.3 km/h 87% 0.0 mm 2.0 W/m2 CLR
12:31 3.6 °C 1.6 °C 1003.9 hPa SW 11.1 km/h 11.1 km/h 87% 0.0 mm 2.0 W/m2 CLR
12:36 3.6 °C 1.6 °C 1003.9 hPa SSW 9.3 km/h 9.3 km/h 87% 0.0 mm 2.0 W/m2 CLR
12:37 3.6 °C 1.6 °C 1003.9 hPa SSW 11.1 km/h 11.1 km/h 87% 0.0 mm 2.0 W/m2 CLR
12:42 3.6 °C 1.5 °C 1002.9 hPa SW 9.3 km/h 9.3 km/h 86% 0.0 mm 2.0 W/m2 CLR
12:46 3.6 °C 1.5 °C 1002.9 hPa SSW 7.4 km/h 7.4 km/h 86% 0.0 mm 2.0 W/m2 CLR
12:49 3.6 °C 1.5 °C 1002.9 hPa SW 10.0 km/h 10.0 km/h 86% 0.0 mm 2.0 W/m2 CLR
12:52 3.6 °C 1.5 °C 1002.9 hPa SSW 11.1 km/h 11.1 km/h 86% 0.0 mm 2.0 W/m2 CLR
13:00 3.6 °C 1.3 °C 1003.9 hPa WSW 9.7 km/h 9.7 km/h 85% 0.0 mm 2.0 W/m2 CLR
13:01 3.7 °C 1.4 °C 1003.9 hPa South 9.3 km/h 9.3 km/h 85% 0.0 mm 2.0 W/m2 CLR
13:06 3.7 °C 1.2 °C 1003.9 hPa SW 11.1 km/h 11.1 km/h 84% 0.0 mm 2.0 W/m2 CLR
13:07 3.7 °C 1.2 °C 1003.9 hPa SW 11.1 km/h 11.1 km/h 84% 0.0 mm 2.0 W/m2 CLR
13:12 3.7 °C 1.2 °C 1003.9 hPa WSW 11.1 km/h 11.1 km/h 84% 0.0 mm 2.0 W/m2 CLR
13:13 3.8 °C 1.3 °C 1003.9 hPa SW 9.3 km/h 9.3 km/h 84% 0.0 mm 2.0 W/m2 CLR
13:16 3.8 °C 1.3 °C 1003.9 hPa WSW 9.3 km/h 9.3 km/h 84% 0.0 mm 2.0 W/m2 CLR
13:19 3.8 °C 1.3 °C 1003.9 hPa SSW 9.3 km/h 9.3 km/h 84% 0.0 mm 2.0 W/m2 CLR
13:24 3.9 °C 1.4 °C 1005.0 hPa SSW 7.4 km/h 7.4 km/h 84% 0.0 mm 2.0 W/m2 CLR
13:28 3.9 °C 1.4 °C 1005.0 hPa WSW 9.3 km/h 9.3 km/h 84% 0.0 mm 2.0 W/m2 CLR
13:32 3.9 °C 1.4 °C 1005.0 hPa WSW 9.5 km/h 9.5 km/h 84% 0.0 mm 2.0 W/m2 CLR
13:37 4.0 °C 1.4 °C 1005.0 hPa SSW 9.3 km/h 9.3 km/h 83% 0.0 mm 2.0 W/m2 CLR
13:41 4.0 °C 1.4 °C 1005.0 hPa SW 9.7 km/h 9.7 km/h 83% 0.0 mm 2.0 W/m2 CLR
13:46 4.0 °C 1.4 °C 1005.0 hPa WSW 10.0 km/h 10.0 km/h 83% 0.0 mm 2.0 W/m2 CLR
13:51 4.0 °C 1.4 °C 1005.0 hPa SSW 11.1 km/h 11.1 km/h 83% 0.0 mm 2.0 W/m2 CLR
13:55 6.0 °C 4.9 °C 1001.9 hPa SW 9.3 km/h 9.3 km/h 93% 0.0 mm 2.0 W/m2 CLR
14:00 4.0 °C 1.4 °C 1005.0 hPa SW 9.3 km/h 9.3 km/h 83% 0.0 mm 2.0 W/m2 CLR
14:01 4.0 °C 1.4 °C 1005.0 hPa SW 9.3 km/h 9.3 km/h 83% 0.0 mm 2.0 W/m2 CLR
14:05 4.1 °C 1.4 °C 1005.0 hPa South 6.9 km/h 6.9 km/h 83% 0.0 mm 2.0 W/m2 CLR
14:10 4.1 °C 1.4 °C 1006.0 hPa SW 9.3 km/h 9.3 km/h 83% 0.0 mm 2.0 W/m2 CLR
14:12 4.1 °C 1.4 °C 1006.0 hPa SW 7.4 km/h 7.4 km/h 83% 0.0 mm 2.0 W/m2 CLR
14:13 4.1 °C 1.4 °C 1006.0 hPa WSW 5.8 km/h 5.8 km/h 83% 0.0 mm 2.0 W/m2 CLR
14:18 4.1 °C 1.4 °C 1006.0 hPa SW 5.6 km/h 5.8 km/h 83% 0.0 mm 2.0 W/m2 CLR
14:20 4.1 °C 1.3 °C 1006.0 hPa SW 9.3 km/h 9.3 km/h 82% 0.0 mm 2.0 W/m2 CLR
14:25 4.1 °C 1.3 °C 1006.0 hPa SW 11.1 km/h 11.1 km/h 82% 0.0 mm 2.0 W/m2 CLR
14:26 4.1 °C 1.3 °C 1006.0 hPa SW 11.1 km/h 11.1 km/h 82% 0.0 mm 2.0 W/m2 CLR
14:31 4.1 °C 1.3 °C 1006.0 hPa SW 9.3 km/h 9.3 km/h 82% 0.0 mm 2.0 W/m2 CLR
14:35 4.1 °C 1.3 °C 1006.0 hPa SW 9.3 km/h 9.3 km/h 82% 0.0 mm 2.0 W/m2 CLR
14:40 4.2 °C 1.4 °C 1006.0 hPa SW 5.8 km/h 5.8 km/h 82% 0.0 mm 2.0 W/m2 CLR
14:41 4.1 °C 1.1 °C 1006.0 hPa SW 7.4 km/h 7.4 km/h 81% 0.0 mm 2.0 W/m2 CLR
14:45 4.1 °C 1.1 °C 1006.0 hPa SW 9.3 km/h 9.3 km/h 81% 0.0 mm 2.0 W/m2 CLR
14:48 4.1 °C 1.1 °C 1006.0 hPa SW 7.4 km/h 7.4 km/h 81% 0.0 mm 2.0 W/m2 CLR
14:51 4.1 °C 1.1 °C 1006.0 hPa SSW 5.6 km/h 5.6 km/h 81% 0.0 mm 2.0 W/m2 CLR
14:56 4.1 °C 1.1 °C 1005.0 hPa SW 7.4 km/h 7.4 km/h 81% 0.0 mm 2.0 W/m2 CLR
14:58 4.1 °C 1.1 °C 1005.0 hPa SW 5.6 km/h 5.8 km/h 81% 0.0 mm 2.0 W/m2 CLR
15:02 4.1 °C 1.1 °C 1005.0 hPa SSW 9.5 km/h 9.5 km/h 81% 0.0 mm 2.0 W/m2 CLR
15:05 4.1 °C 1.1 °C 1005.0 hPa WSW 7.4 km/h 7.4 km/h 81% 0.0 mm 2.0 W/m2 CLR
15:09 4.2 °C 1.2 °C 1005.0 hPa SW 10.3 km/h 10.3 km/h 81% 0.0 mm 2.0 W/m2 CLR
15:10 4.2 °C 1.2 °C 1006.0 hPa SW 11.1 km/h 11.1 km/h 81% 0.0 mm 2.0 W/m2 CLR
15:14 4.1 °C 0.9 °C 1006.0 hPa SW 9.0 km/h 9.0 km/h 80% 0.0 mm 2.0 W/m2 CLR
15:19 4.1 °C 0.9 °C 1006.0 hPa SW 9.3 km/h 9.3 km/h 80% 0.0 mm 2.0 W/m2 CLR
15:21 4.1 °C 0.9 °C 1006.0 hPa SW 9.3 km/h 9.3 km/h 80% 0.0 mm 2.0 W/m2 CLR
15:22 4.1 °C 0.8 °C 1006.0 hPa SW 7.4 km/h 7.4 km/h 79% 0.0 mm 2.0 W/m2 CLR
15:26 4.0 °C 0.7 °C 1006.0 hPa WSW 7.4 km/h 7.4 km/h 79% 0.0 mm 2.0 W/m2 CLR
15:27 4.0 °C 0.7 °C 1006.0 hPa WSW 7.4 km/h 7.4 km/h 79% 0.0 mm 2.0 W/m2 CLR
15:32 4.0 °C 0.7 °C 1006.0 hPa SW 6.9 km/h 6.9 km/h 79% 0.0 mm 2.0 W/m2 CLR
15:37 3.8 °C 0.5 °C 1006.0 hPa SW 7.4 km/h 7.4 km/h 79% 0.0 mm 2.0 W/m2 CLR
15:38 3.8 °C 0.5 °C 1006.0 hPa SW 9.3 km/h 9.3 km/h 79% 0.0 mm 2.0 W/m2 CLR
15:41 3.8 °C 0.5 °C 1006.0 hPa SW 9.3 km/h 9.3 km/h 79% 0.0 mm 2.0 W/m2 CLR
15:46 3.6 °C 0.1 °C 1006.0 hPa SW 7.4 km/h 7.4 km/h 78% 0.0 mm 2.0 W/m2 CLR
15:51 3.6 °C 0.1 °C 1006.0 hPa WSW 5.6 km/h 5.6 km/h 78% 0.0 mm 2.0 W/m2 CLR
15:55 3.5 °C 0.0 °C 1006.0 hPa SW 5.6 km/h 5.6 km/h 78% 0.0 mm 2.0 W/m2 CLR
16:00 3.4 °C -0.1 °C 1006.0 hPa SW 5.6 km/h 5.6 km/h 78% 0.0 mm 0.0 W/m2 CLR
16:04 3.3 °C -0.2 °C 1006.0 hPa SW 9.3 km/h 9.3 km/h 78% 0.0 mm 0.0 W/m2 CLR
16:06 3.3 °C -0.2 °C 1006.0 hPa SSW 5.8 km/h 5.8 km/h 78% 0.0 mm 0.0 W/m2 CLR
16:11 3.1 °C -0.4 °C 1007.0 hPa SW 7.4 km/h 7.4 km/h 78% 0.0 mm 0.0 W/m2 CLR
16:16 3.0 °C -0.4 °C 1007.0 hPa SW 9.3 km/h 9.3 km/h 78% 0.0 mm 0.0 W/m2 CLR
16:19 3.0 °C -0.4 °C 1007.0 hPa SW 7.4 km/h 7.4 km/h 78% 0.0 mm 0.0 W/m2 CLR
16:21 2.9 °C -0.6 °C 1007.0 hPa SW 9.3 km/h 9.3 km/h 78% 0.0 mm 0.0 W/m2 CLR
16:27 2.8 °C -0.8 °C 1007.0 hPa SSW 7.9 km/h 7.9 km/h 77% 0.0 mm 0.0 W/m2 CLR
16:32 2.7 °C -0.9 °C 1007.0 hPa SW 7.4 km/h 7.4 km/h 77% 0.0 mm 0.0 W/m2 CLR
16:33 2.7 °C -0.9 °C 1007.0 hPa SSW 7.4 km/h 7.4 km/h 77% 0.0 mm 0.0 W/m2 CLR
16:39 2.6 °C -1.1 °C 1007.0 hPa SW 7.4 km/h 7.4 km/h 77% 0.0 mm 0.0 W/m2 CLR
16:44 2.6 °C -1.1 °C 1007.0 hPa SW 9.3 km/h 9.3 km/h 77% 0.0 mm 0.0 W/m2 CLR
16:45 6.0 °C 4.9 °C 1001.9 hPa SW 7.4 km/h 7.4 km/h 93% 0.0 mm 0.0 W/m2 CLR
16:50 2.5 °C -1.1 °C 1007.0 hPa SW 7.4 km/h 7.4 km/h 77% 0.0 mm 0.0 W/m2 CLR
16:55 2.4 °C -1.2 °C 1007.0 hPa SW 5.6 km/h 5.6 km/h 77% 0.0 mm 0.0 W/m2 CLR
16:56 2.4 °C -1.2 °C 1007.0 hPa SW 5.8 km/h 5.8 km/h 77% 0.0 mm 0.0 W/m2 CLR
16:57 2.4 °C -1.2 °C 1007.0 hPa SW 5.6 km/h 5.6 km/h 77% 0.0 mm 0.0 W/m2 CLR
17:01 2.3 °C -1.3 °C 1007.0 hPa SSW 3.7 km/h 3.7 km/h 77% 0.0 mm 0.0 W/m2 CLR
17:02 2.3 °C -1.3 °C 1007.0 hPa SSW 2.3 km/h 2.3 km/h 77% 0.0 mm 0.0 W/m2 CLR
17:07 2.2 °C -1.2 °C 1007.0 hPa Calm     78% 0.0 mm 0.0 W/m2 CLR
17:08 2.1 °C -1.3 °C 1007.0 hPa Calm     78% 0.0 mm 0.0 W/m2 CLR
17:10 6.0 °C 4.9 °C 1001.9 hPa Calm     93% 0.0 mm 0.0 W/m2 CLR
17:15 2.0 °C -1.4 °C 1008.0 hPa Calm     78% 0.0 mm 0.0 W/m2 CLR
17:16 1.9 °C -1.6 °C 1008.0 hPa Calm     78% 0.0 mm 0.0 W/m2 CLR
17:20 1.8 °C -1.4 °C 1008.0 hPa SSW 1.9 km/h   79% 0.0 mm 0.0 W/m2 CLR
17:25 1.7 °C -1.6 °C 1009.0 hPa SSW 1.9 km/h 1.9 km/h 79% 0.0 mm 0.0 W/m2 CLR
17:26 1.7 °C -1.6 °C 1009.0 hPa Calm   1.4 km/h 79% 0.0 mm 0.0 W/m2 CLR
17:31 1.7 °C -1.6 °C 1009.0 hPa Calm     79% 0.0 mm 0.0 W/m2 CLR
17:32 1.6 °C -1.5 °C 1009.0 hPa South 3.7 km/h 3.7 km/h 80% 0.0 mm 0.0 W/m2 CLR
17:35 1.5 °C -1.6 °C 1009.0 hPa ENE 3.7 km/h 3.7 km/h 80% 0.0 mm 0.0 W/m2 CLR
17:40 1.4 °C -1.7 °C 1008.0 hPa Calm     80% 0.0 mm 0.0 W/m2 CLR
17:41 1.4 °C -1.7 °C 1008.0 hPa Calm     80% 0.0 mm 0.0 W/m2 CLR
17:46 1.3 °C -1.8 °C 1008.0 hPa Calm     80% 0.0 mm 0.0 W/m2 CLR
17:47 1.3 °C -1.8 °C 1008.0 hPa Calm     80% 0.0 mm 0.0 W/m2 CLR
17:52 1.1 °C -1.8 °C 1008.0 hPa Calm     81% 0.0 mm 0.0 W/m2 CLR
17:54 1.1 °C -1.8 °C 1008.0 hPa Calm     81% 0.0 mm 0.0 W/m2 CLR
17:55 1.1 °C -1.8 °C 1008.0 hPa Calm     81% 0.0 mm 0.0 W/m2 CLR
18:00 1.1 °C -1.8 °C 1008.0 hPa Calm     81% 0.0 mm 0.0 W/m2 CLR
18:01 1.1 °C -1.8 °C 1008.0 hPa Calm     81% 0.0 mm 0.0 W/m2 CLR
18:06 1.0 °C -1.9 °C 1008.0 hPa SSW 1.4 km/h   81% 0.0 mm 0.0 W/m2 CLR
18:10 1.0 °C -1.9 °C 1009.0 hPa Calm     81% 0.0 mm 0.0 W/m2 CLR
18:15 0.9 °C -1.8 °C 1009.0 hPa Calm     82% 0.0 mm 0.0 W/m2 CLR
18:17 0.8 °C -1.9 °C 1009.0 hPa Calm     82% 0.0 mm 0.0 W/m2 CLR
18:22 0.7 °C -2.0 °C 1009.0 hPa Calm     82% 0.0 mm 0.0 W/m2 CLR
18:27 0.7 °C -2.0 °C 1009.0 hPa Calm     82% 0.0 mm 0.0 W/m2 CLR
18:28 0.7 °C -2.0 °C 1009.0 hPa Calm     82% 0.0 mm 0.0 W/m2 CLR
18:33 0.6 °C -2.1 °C 1009.0 hPa Calm     82% 0.0 mm 0.0 W/m2 CLR
18:36 0.5 °C -2.2 °C 1009.0 hPa Calm     82% 0.0 mm 0.0 W/m2 CLR
18:39 0.3 °C -2.4 °C 1009.0 hPa Calm     82% 0.0 mm 0.0 W/m2 CLR
18:44 0.3 °C -2.2 °C 1009.0 hPa SSW 3.2 km/h   83% 0.0 mm 0.0 W/m2 CLR
18:45 6.0 °C 4.9 °C 1001.9 hPa SSW 3.7 km/h 3.7 km/h 93% 0.0 mm 0.0 W/m2 CLR
18:46 0.2 °C -2.3 °C 1009.0 hPa SSW 1.9 km/h 2.3 km/h 83% 0.0 mm 0.0 W/m2 CLR
18:50 0.3 °C -2.2 °C 1009.0 hPa Calm     83% 0.0 mm 0.0 W/m2 CLR
18:53 0.3 °C -2.2 °C 1009.0 hPa Calm     83% 0.0 mm 0.0 W/m2 CLR
18:58 0.2 °C -2.3 °C 1010.0 hPa Calm     83% 0.0 mm 0.0 W/m2 CLR
19:01 0.2 °C -2.3 °C 1010.0 hPa Calm     83% 0.0 mm 0.0 W/m2 CLR
19:04 0.1 °C -2.4 °C 1010.0 hPa SSW 1.9 km/h 2.3 km/h 83% 0.0 mm 0.0 W/m2 CLR
19:08 0.1 °C -2.4 °C 1010.0 hPa Calm     83% 0.0 mm 0.0 W/m2 CLR
19:11 0.0 °C -2.4 °C 1010.0 hPa Calm     84% 0.0 mm 0.0 W/m2 CLR
19:16 0.0 °C -2.4 °C 1010.0 hPa Calm     84% 0.0 mm 0.0 W/m2 CLR
19:17 0.0 °C -2.4 °C 1010.0 hPa Calm     84% 0.0 mm 0.0 W/m2 CLR
19:22 0.0 °C -2.4 °C 1010.0 hPa SSW 3.7 km/h   84% 0.0 mm 0.0 W/m2 CLR
19:27 -0.1 °C -2.5 °C 1010.0 hPa Calm     84% 0.0 mm 0.0 W/m2 CLR
19:28 -0.1 °C -2.5 °C 1010.0 hPa Calm     84% 0.0 mm 0.0 W/m2 CLR
19:33 -0.1 °C -2.5 °C 1010.0 hPa Calm     84% 0.0 mm 0.0 W/m2 CLR
19:34 -0.1 °C -2.5 °C 1010.0 hPa SSW 2.6 km/h   84% 0.0 mm 0.0 W/m2 CLR
19:39 -0.1 °C -2.5 °C 1010.0 hPa East 1.9 km/h 1.9 km/h 84% 0.0 mm 0.0 W/m2 CLR
19:44 -0.2 °C -2.6 °C 1010.0 hPa ESE 3.7 km/h 3.7 km/h 84% 0.0 mm 0.0 W/m2 CLR
19:46 -0.1 °C -2.5 °C 1010.0 hPa ESE 3.9 km/h 3.9 km/h 84% 0.0 mm 0.0 W/m2 CLR
19:51 0.0 °C -2.2 °C 1010.0 hPa ESE 3.2 km/h 3.2 km/h 85% 0.0 mm 0.0 W/m2 CLR
19:52 0.0 °C -2.2 °C 1010.0 hPa ESE 3.7 km/h 3.7 km/h 85% 0.0 mm 0.0 W/m2 CLR
19:57 0.0 °C -2.2 °C 1010.0 hPa Calm     85% 0.0 mm 0.0 W/m2 CLR
19:59 0.0 °C -2.1 °C 1010.0 hPa Calm     86% 0.0 mm 0.0 W/m2 CLR
20:04 -0.1 °C -2.2 °C 1010.0 hPa Calm     86% 0.0 mm 0.0 W/m2 CLR
20:09 -0.1 °C -2.2 °C 1010.0 hPa Calm     86% 0.0 mm 0.0 W/m2 CLR
20:12 -0.3 °C -2.3 °C 1010.0 hPa Calm     86% 0.0 mm 0.0 W/m2 CLR
20:17 -0.3 °C -2.3 °C 1010.0 hPa Calm     86% 0.0 mm 0.0 W/m2 CLR
20:19 -0.3 °C -2.3 °C 1010.0 hPa Calm     86% 0.0 mm 0.0 W/m2 CLR
20:24 -0.4 °C -2.4 °C 1010.0 hPa ESE 1.9 km/h   86% 0.0 mm 0.0 W/m2 CLR
20:25 -0.4 °C -2.4 °C 1010.0 hPa Calm     86% 0.0 mm 0.0 W/m2 CLR
20:30 -0.4 °C -2.4 °C 1010.0 hPa NE 1.9 km/h   86% 0.0 mm 0.0 W/m2 CLR
20:32 -0.4 °C -2.3 °C 1010.0 hPa Calm     87% 0.0 mm 0.0 W/m2 CLR
20:37 -0.4 °C -2.3 °C 1010.0 hPa Calm     87% 0.0 mm 0.0 W/m2 CLR
20:42 -0.5 °C -2.4 °C 1010.0 hPa Calm     87% 0.0 mm 0.0 W/m2 CLR
20:43 -0.5 °C -2.4 °C 1010.0 hPa Calm     87% 0.0 mm 0.0 W/m2 CLR
20:48 -0.7 °C -2.6 °C 1010.0 hPa ENE 1.9 km/h   87% 0.0 mm 0.0 W/m2 CLR
20:51 -0.7 °C -2.6 °C 1010.0 hPa Calm     87% 0.0 mm 0.0 W/m2 CLR
20:56 -0.8 °C -2.7 °C 1010.7 hPa Calm     87% 0.0 mm 0.0 W/m2 CLR
21:00 -0.9 °C -2.8 °C 1010.7 hPa Calm     87% 0.0 mm 0.0 W/m2 CLR
21:02 -1.0 °C -2.9 °C 1010.7 hPa Calm     87% 0.0 mm 0.0 W/m2 CLR
21:05 -1.0 °C -2.9 °C 1010.7 hPa Calm     87% 0.0 mm 0.0 W/m2 CLR
21:08 -1.0 °C -2.7 °C 1010.7 hPa NNE 3.9 km/h 3.9 km/h 88% 0.0 mm 0.0 W/m2 CLR
21:13 -1.1 °C -3.0 °C 1010.7 hPa ENE 5.6 km/h 5.6 km/h 87% 0.0 mm 0.0 W/m2 CLR
21:18 -1.1 °C -3.0 °C 1010.7 hPa Calm     87% 0.0 mm 0.0 W/m2 CLR
21:23 -1.3 °C -3.1 °C 1010.7 hPa Calm     88% 0.0 mm 0.0 W/m2 CLR
21:26 -1.3 °C -3.1 °C 1010.7 hPa Calm     88% 0.0 mm 0.0 W/m2 CLR
21:31 -1.3 °C -3.1 °C 1010.7 hPa Calm     88% 0.0 mm 0.0 W/m2 CLR
21:36 -1.3 °C -3.1 °C 1010.7 hPa Calm     88% 0.0 mm 0.0 W/m2 CLR
21:38 -1.3 °C -3.1 °C 1010.7 hPa Calm     88% 0.0 mm 0.0 W/m2 CLR
21:41 -1.4 °C -3.1 °C 1010.7 hPa Calm     88% 0.0 mm 0.0 W/m2 CLR
Hered Hungary
Compliments of Weather Underground - 4.75 mb